METAR Data
IDs: Format: Raw Decoded Include TAF

Data at: 1100 UTC 26 Sep 2018

K0V4 261055Z AUTO 00000KT OVC002 18/18 A3006 RMK AO1 T01760175
K0V4 261035Z AUTO 00000KT BKN002 18/18 A3006 RMK AO1 T01750175
K0V4 261015Z AUTO 00000KT BKN002 18/18 A3005 RMK AO1 T01800178
K0V4 260955Z AUTO 00000KT OVC002 18/18 A3006 RMK AO1 T01790178
K0V4 260935Z AUTO 00000KT OVC002 18/18 A3006 RMK AO1 T01800179
K0V4 260915Z AUTO 00000KT OVC002 18/18 A3006 RMK AO1 T01820181
K0V4 260855Z AUTO 00000KT OVC002 18/18 A3006 RMK AO1 T01840183
K0V4 260835Z AUTO 00000KT OVC002 18/18 A3006 RMK AO1 T01800179
K0V4 260815Z AUTO 00000KT OVC002 18/18 A3007 RMK AO1 T01810180
K0V4 260755Z AUTO 00000KT OVC002 18/18 A3008 RMK AO1 T01820181
K0V4 260735Z AUTO 00000KT OVC002 18/18 A3008 RMK AO1 T01810180
K0V4 260715Z AUTO 00000KT OVC002 18/18 A3009 RMK AO1 T01770176
K0V4 260655Z AUTO 00000KT OVC002 18/18 A3009 RMK AO1 T01800179
K0V4 260635Z AUTO 00000KT OVC002 18/18 A3010 RMK AO1 T01800180
K0V4 260615Z AUTO 00000KT OVC002 18/18 A3010 RMK AO1 T01830182
K0V4 260555Z AUTO 00000KT OVC002 18/18 A3011 RMK AO1 T01800179 10231 20180
K0V4 260535Z AUTO 00000KT OVC002 19/19 A3011 RMK AO1 T01860185
K0V4 260515Z AUTO 00000KT BKN002 19/18 A3011 RMK AO1 T01850183
K0V4 260455Z AUTO 00000KT BKN002 19/19 A3011 RMK AO1 T01890188 402880189
K0V4 260435Z AUTO 00000KT OVC002 19/19 A3012 RMK AO1 T01900190
K0V4 260415Z AUTO 00000KT BKN002 19/19 A3012 RMK AO1 T01900189
K0V4 260355Z AUTO 00000KT 19/19 A3013 RMK AO1 T01940193
K0V4 260335Z AUTO 00000KT 20/20 A3013 RMK AO1 T01970196
K0V4 260315Z AUTO 00000KT 20/20 A3013 RMK AO1 T02020201
K0V4 260255Z AUTO 00000KT 21/20 A3013 RMK AO1 T02050204
K0V4 260235Z AUTO 00000KT 20/20 A3013 RMK AO1 T02020201
K0V4 260215Z AUTO 00000KT 21/21 A3014 RMK AO1 T02090208
K0V4 260155Z AUTO 00000KT 21/21 A3014 RMK AO1 T02140213
K0V4 260135Z AUTO 00000KT 22/22 A3015 RMK AO1 T02150215
K0V4 260115Z AUTO 00000KT BKN036 22/22 A3015 RMK AO1 T02200219
K0V4 260055Z AUTO 00000KT BKN036 22/22 A3016 RMK AO1 T02200220
K0V4 260035Z AUTO 00000KT 22/22 A3015 RMK AO1 T02230222
K0V4 260015Z AUTO 00000KT 22/22 A3015 RMK AO1 T02230222
K0V4 252355Z AUTO 00000KT 23/23 A3014 RMK AO1 T02310231 10288 20230
K0V4 252335Z AUTO 00000KT 24/23 A3014 RMK AO1 T02350233
K0V4 252315Z AUTO 00000KT 24/24 A3013 RMK AO1 T02360236
K0V4 252255Z AUTO 00000KT 25/25 A3014 RMK AO1 T02490248
K0V4 252235Z AUTO 00000KT 26/24 A3014 RMK AO1 T02590240
K0V4 252215Z AUTO 00000KT CLR 26/22 A3015 RMK AO1 T02600221
K0V4 252155Z AUTO 00000KT CLR 27/21 A3015 RMK AO1 T02650212
K0V4 252135Z AUTO 00000KT SCT029 27/20 A3015 RMK AO1 T02700203
K0V4 252115Z AUTO 25003KT SCT027 28/21 A3015 RMK AO1 T02810206
K0V4 252055Z AUTO 28004KT SCT027 SCT032 28/21 A3015 RMK AO1 T02830208
K0V4 252035Z AUTO 00000KT SCT034 28/21 A3016 RMK AO1 T02800209
K0V4 252015Z AUTO 28003KT SCT034 28/21 A3016 RMK AO1 T02830212
K0V4 251955Z AUTO 30005KT SCT032 29/20 A3017 RMK AO1 T02880203
K0V4 251935Z AUTO 00000KT SCT030 28/20 A3017 RMK AO1 T02830204
K0V4 251915Z AUTO 00000KT SCT028 29/21 A3018 RMK AO1 T02880205
K0V4 251855Z AUTO 23006KT SCT026 SCT034 28/21 A3018 RMK AO1 T02820208
K0V4 251835Z AUTO 24005KT SCT024 BKN034 27/21 A3019 RMK AO1 T02730205
K0V4 251815Z AUTO 24003KT SCT024 27/22 A3020 RMK AO1 T02720215
K0V4 251755Z AUTO 25005KT BKN019 BKN025 27/22 A3021 RMK AO1 T02710218 10271 20192
K0V4 251735Z AUTO 27004KT BKN015 OVC020 25/22 A3022 RMK AO1 T02540220
K0V4 251715Z AUTO 30004KT SCT009 OVC016 25/23 A3022 RMK AO1 T02540230
K0V4 251655Z AUTO 26006KT BKN010 OVC015 25/23 A3023 RMK AO1 T02470233
K0V4 251635Z AUTO 25003KT OVC007 24/24 A3024 RMK AO1 T02350235
K0V4 251615Z AUTO 00000KT OVC005 22/22 A3025 RMK AO1 T02230222
K0V4 251555Z AUTO 00000KT OVC003 22/22 A3026 RMK AO1 T02190218
K0V4 251535Z AUTO 00000KT OVC003 21/21 A3026 RMK AO1 T02140213
K0V4 251515Z AUTO 00000KT OVC003 21/21 A3027 RMK AO1 T02110210
K0V4 251450Z AUTO 00000KT OVC003 21/21 A3027 RMK AO1 T02070206
K0V4 251435Z AUTO 00000KT OVC003 20/20 A3027 RMK AO1 T02030202
K0V4 251415Z AUTO 00000KT OVC003 20/20 A3027 RMK AO1 T02010200
K0V4 251355Z AUTO 00000KT OVC003 20/20 A3027 RMK AO1 T02000200
K0V4 251335Z AUTO 00000KT OVC003 20/20 A3027 RMK AO1 T01980197
K0V4 251315Z AUTO 00000KT OVC003 20/20 A3026 RMK AO1 T01970196
K0V4 251255Z AUTO 00000KT OVC003 20/20 A3026 RMK AO1 T01960195
K0V4 251230Z AUTO 04003KT OVC003 19/19 A3025 RMK AO1 T01930192
K0V4 251215Z AUTO 00000KT OVC003 19/19 A3025 RMK AO1 T01930193
K0V4 251150Z AUTO 00000KT OVC003 19/19 A3025 RMK AO1 T01920192 10200 20191
K0V4 251135Z AUTO 01003KT OVC003 19/19 A3024 RMK AO1 T01910191
K0V4 251115Z AUTO 00000KT OVC003 19/19 A3023 RMK AO1 T01910191
K0V4 251100Z AUTO 03003KT OVC003 19/19 A3023 RMK AO1 T01920191
K0V4 251030Z AUTO 00000KT OVC003 19/19 A3022 RMK AO1 T01920191
K0V4 251015Z AUTO 00000KT OVC003 19/19 A3022 RMK AO1 T01920192
K0V4 250955Z AUTO 00000KT OVC003 19/19 A3023 RMK AO1 T01930192
K0V4 250935Z AUTO 02003KT OVC003 19/19 A3022 RMK AO1 T01930193
K0V4 250915Z AUTO 00000KT OVC003 20/20 A3023 RMK AO1 T01950195
K0V4 250855Z AUTO 00000KT OVC003 20/20 A3023 RMK AO1 T01950195
K0V4 250835Z AUTO 03004KT OVC003 20/20 A3023 RMK AO1 T01960195
K0V4 250815Z AUTO 03004KT OVC003 20/20 A3023 RMK AO1 T01970196
K0V4 250755Z AUTO 02003KT OVC003 20/20 A3024 RMK AO1 T01970197
K0V4 250735Z AUTO 04004KT OVC003 20/20 A3024 RMK AO1 T01980197
K0V4 250715Z AUTO 00000KT OVC003 20/20 A3025 RMK AO1 T02000198
K0V4 250655Z AUTO 00000KT OVC003 20/20 A3025 RMK AO1 T02000198
K0V4 250635Z AUTO 00000KT OVC003 20/20 A3025 RMK AO1 T02000198
K0V4 250615Z AUTO 05003KT OVC003 20/20 A3026 RMK AO1 T02000200
K0V4 250555Z AUTO 03004KT OVC003 20/20 A3027 RMK AO1 T02000200 10200 20197
K0V4 250535Z AUTO 04003KT OVC003 20/20 A3027 RMK AO1 T02000199
K0V4 250515Z AUTO 36004KT OVC003 20/20 A3027 RMK AO1 T02000200
K0V4 250455Z AUTO 02003KT OVC003 20/20 A3028 RMK AO1 T02000200 402070167
K0V4 250435Z AUTO 01003KT OVC003 20/20 A3028 RMK AO1 T02000200
K0V4 250415Z AUTO 00000KT OVC003 20/20 A3028 RMK AO1 T02000199
K0V4 250355Z AUTO 00000KT OVC003 20/20 A3029 RMK AO1 T02000198
K0V4 250335Z AUTO 05003KT OVC003 20/20 A3028 RMK AO1 T01990197
K0V4 250315Z AUTO 00000KT OVC003 20/20 A3028 RMK AO1 T01980197
K0V4 250255Z AUTO 03003KT OVC003 20/20 A3029 RMK AO1 T01980197
K0V4 250235Z AUTO 00000KT OVC003 20/20 A3028 RMK AO1 T01970196
K0V4 250215Z AUTO 02003KT OVC003 20/20 A3028 RMK AO1 T01970196
K0V4 250155Z AUTO 36003KT OVC003 20/20 A3028 RMK AO1 T01970196
K0V4 250135Z AUTO 02004KT OVC003 20/20 A3028 RMK AO1 T01980197
K0V4 250115Z AUTO 02004KT OVC003 20/20 A3028 RMK AO1 T01980197
K0V4 250055Z AUTO 03003KT OVC003 20/20 A3028 RMK AO1 T01980197
K0V4 250035Z AUTO 03003KT OVC003 20/20 A3028 RMK AO1 T01980197
K0V4 250015Z AUTO 03004KT OVC003 20/20 A3027 RMK AO1 T01980197
K0V4 242355Z AUTO 02004KT OVC003 20/20 A3027 RMK AO1 T01980197 10207 20198
K0V4 242335Z AUTO 02004KT OVC003 20/20 A3027 RMK AO1 T01990198
K0V4 242315Z AUTO 03003KT OVC003 20/20 A3026 RMK AO1 T01990198